createdAt,value
2023-10-10T00:04:42.434Z,18.20
2023-10-10T00:09:46.036Z,18.10
2023-10-10T00:14:52.113Z,17.90
2023-10-10T00:19:55.900Z,17.80
2023-10-10T00:24:58.141Z,17.70
2023-10-10T00:30:01.497Z,17.90
2023-10-10T00:35:07.306Z,18.30
2023-10-10T00:40:11.468Z,18.40
2023-10-10T00:45:15.648Z,18.00
2023-10-10T00:50:26.081Z,17.70
2023-10-10T00:55:34.755Z,17.80
2023-10-10T01:00:43.661Z,18.30
2023-10-10T01:05:53.788Z,18.10
2023-10-10T01:11:02.300Z,17.60
2023-10-10T01:16:06.875Z,17.50
2023-10-10T01:21:10.550Z,17.30
2023-10-10T01:26:12.683Z,17.50
2023-10-10T01:31:19.460Z,18.00
2023-10-10T01:36:22.837Z,18.10
2023-10-10T01:41:40.128Z,18.00
2023-10-10T01:46:42.900Z,17.80
2023-10-10T01:51:45.217Z,17.50
2023-10-10T01:56:48.339Z,17.20
2023-10-10T02:01:53.024Z,17.40
2023-10-10T02:07:05.849Z,17.20
2023-10-10T02:12:17.233Z,17.10
2023-10-10T02:17:23.787Z,17.90
2023-10-10T02:22:48.579Z,17.30
2023-10-10T02:27:57.205Z,17.00
2023-10-10T02:32:59.465Z,17.20
2023-10-10T02:38:06.344Z,17.00
2023-10-10T02:43:20.780Z,17.00
2023-10-10T02:48:24.891Z,17.50
2023-10-10T02:53:27.062Z,17.10
2023-10-10T02:58:39.305Z,17.50
2023-10-10T03:03:43.486Z,17.70
2023-10-10T03:08:53.195Z,18.00
2023-10-10T03:14:02.293Z,18.00
2023-10-10T03:19:04.918Z,17.10
2023-10-10T03:24:16.932Z,16.70
2023-10-10T03:29:28.597Z,16.70
2023-10-10T03:34:34.170Z,17.60
2023-10-10T03:39:55.785Z,18.20
2023-10-10T03:45:16.771Z,17.50
2023-10-10T03:50:37.806Z,16.70
2023-10-10T03:55:58.779Z,17.40
2023-10-10T04:01:20.210Z,18.10
2023-10-10T04:06:41.063Z,17.50
2023-10-10T04:12:01.924Z,17.00
2023-10-10T04:17:23.071Z,16.40
2023-10-10T04:22:43.583Z,16.60
2023-10-10T04:28:04.358Z,17.40
2023-10-10T04:33:24.985Z,17.80
2023-10-10T04:38:45.603Z,17.70
2023-10-10T04:44:06.224Z,16.50
2023-10-10T04:49:26.716Z,16.00
2023-10-10T04:54:47.279Z,16.20
2023-10-10T05:00:08.037Z,17.30
2023-10-10T05:05:29.047Z,17.80
2023-10-10T05:10:49.617Z,16.70
2023-10-10T05:16:10.639Z,16.10
2023-10-10T05:21:31.271Z,15.80
2023-10-10T05:26:33.427Z,15.90
2023-10-10T05:31:37.064Z,16.20
2023-10-10T05:36:39.268Z,16.40
2023-10-10T05:41:42.000Z,17.10
2023-10-10T05:46:45.064Z,16.90
2023-10-10T05:51:47.225Z,16.40
2023-10-10T05:56:49.339Z,17.20
2023-10-10T06:01:51.796Z,17.60
2023-10-10T06:06:54.025Z,16.70
2023-10-10T06:11:56.207Z,16.20
2023-10-10T06:16:58.459Z,16.10
2023-10-10T06:22:03.973Z,16.80
2023-10-10T06:27:10.327Z,17.30
2023-10-10T06:32:17.411Z,17.60
2023-10-10T06:37:19.712Z,17.70
2023-10-10T06:42:28.613Z,18.10
2023-10-10T06:47:33.791Z,18.50
2023-10-10T06:52:37.903Z,18.00
2023-10-10T06:57:43.605Z,18.20
2023-10-10T07:02:55.095Z,18.40
2023-10-10T07:08:00.599Z,18.40
2023-10-10T07:13:04.883Z,18.50
2023-10-10T07:18:16.501Z,18.60
2023-10-10T07:23:22.051Z,18.70
2023-10-10T07:28:27.345Z,18.90
2023-10-10T07:33:41.984Z,19.30
2023-10-10T07:38:44.209Z,19.50
2023-10-10T07:43:50.894Z,19.90
2023-10-10T07:48:55.963Z,20.10
2023-10-10T07:54:04.246Z,20.00
2023-10-10T07:59:07.086Z,20.20
2023-10-10T08:04:09.536Z,20.20
2023-10-10T08:09:12.879Z,20.10
2023-10-10T08:14:15.274Z,20.30
2023-10-10T08:19:17.572Z,20.10
2023-10-10T08:24:21.601Z,19.90
2023-10-10T08:29:28.474Z,20.20
2023-10-10T08:34:30.756Z,20.40
2023-10-10T08:39:40.667Z,20.50
2023-10-10T08:44:49.294Z,20.70
2023-10-10T08:49:51.935Z,21.00
2023-10-10T08:54:54.864Z,21.70
2023-10-10T08:59:57.289Z,21.70
2023-10-10T09:04:59.633Z,21.40
2023-10-10T09:10:15.355Z,21.40
2023-10-10T09:15:18.534Z,21.50
2023-10-10T09:20:31.777Z,21.50
2023-10-10T09:25:43.764Z,21.60
2023-10-10T09:31:04.601Z,21.70
2023-10-10T09:36:10.188Z,21.60
2023-10-10T09:41:37.615Z,21.60
2023-10-10T09:47:01.700Z,21.70
2023-10-10T09:52:22.891Z,21.80
2023-10-10T09:57:28.225Z,21.80
2023-10-10T10:02:42.013Z,21.90
2023-10-10T10:08:14.152Z,22.00
2023-10-10T10:13:57.818Z,22.10
2023-10-10T10:19:18.809Z,22.20
2023-10-10T10:24:34.447Z,22.30
2023-10-10T10:29:38.869Z,22.40
2023-10-10T10:34:47.139Z,22.40
2023-10-10T10:40:08.061Z,22.50
2023-10-10T10:45:37.744Z,22.50
2023-10-10T10:50:42.563Z,22.60
2023-10-10T10:56:04.840Z,22.70
2023-10-10T11:01:09.822Z,23.00
2023-10-10T11:06:32.627Z,24.70
2023-10-10T11:11:34.827Z,26.40
2023-10-10T11:16:40.109Z,27.40
2023-10-10T11:21:50.137Z,27.70
2023-10-10T11:27:07.165Z,27.30
2023-10-10T11:32:12.922Z,25.70
2023-10-10T11:37:25.628Z,24.90
2023-10-10T11:42:34.599Z,24.70
2023-10-10T11:47:46.243Z,24.60
2023-10-10T11:52:54.915Z,24.30
2023-10-10T11:58:07.769Z,24.20
2023-10-10T12:03:15.334Z,24.10
2023-10-10T12:08:25.997Z,24.00
2023-10-10T12:13:34.978Z,24.00
2023-10-10T12:18:45.250Z,24.10
2023-10-10T12:23:49.347Z,24.10
2023-10-10T12:28:53.997Z,23.90
2023-10-10T12:33:56.170Z,23.80
2023-10-10T12:39:06.030Z,24.00
2023-10-10T12:44:08.427Z,23.90
2023-10-10T12:49:13.195Z,23.70
2023-10-10T12:54:19.157Z,23.70
2023-10-10T13:04:32.833Z,23.70
2023-10-10T13:09:43.819Z,23.60
2023-10-10T13:14:52.172Z,23.60
2023-10-10T13:19:54.337Z,23.60
2023-10-10T13:24:57.197Z,23.80
2023-10-10T13:29:59.395Z,24.10
2023-10-10T13:35:02.094Z,24.40
2023-10-10T13:40:07.216Z,24.50
2023-10-10T13:45:13.044Z,24.60
2023-10-10T13:50:32.870Z,24.60
2023-10-10T13:55:35.607Z,24.50
2023-10-10T14:00:44.677Z,24.50
2023-10-10T14:06:02.151Z,24.50
2023-10-10T14:11:05.472Z,24.30
2023-10-10T14:16:07.784Z,24.00
2023-10-10T14:21:12.316Z,24.00
2023-10-10T14:26:14.693Z,23.90
2023-10-10T14:31:19.130Z,23.90
2023-10-10T14:36:22.821Z,23.80
2023-10-10T14:41:33.765Z,23.80
2023-10-10T14:46:36.080Z,23.80
2023-10-10T14:51:38.925Z,23.70
2023-10-10T14:56:51.611Z,23.70
2023-10-10T15:01:57.295Z,23.60
2023-10-10T15:07:00.497Z,23.60
2023-10-10T15:12:03.323Z,23.60
2023-10-10T15:17:06.503Z,23.50
2023-10-10T15:22:17.312Z,23.40
2023-10-10T15:27:20.775Z,23.20
2023-10-10T15:32:22.951Z,23.30
2023-10-10T15:37:28.115Z,23.20
2023-10-10T15:42:30.340Z,23.10
2023-10-10T15:47:32.927Z,22.90
2023-10-10T15:52:35.171Z,22.80
2023-10-10T15:57:37.379Z,22.60
2023-10-10T16:02:41.393Z,22.40
2023-10-10T16:07:56.001Z,22.30
2023-10-10T16:13:08.521Z,22.20
2023-10-10T16:18:11.490Z,22.10
2023-10-10T16:23:13.958Z,21.80
2023-10-10T16:28:16.078Z,21.60
2023-10-10T16:33:22.348Z,21.50
2023-10-10T16:38:24.685Z,22.00
2023-10-10T16:43:26.858Z,21.90
2023-10-10T16:48:32.687Z,21.40
2023-10-10T16:53:40.978Z,21.10
2023-10-10T16:58:45.006Z,21.60
2023-10-10T17:03:50.293Z,21.90
2023-10-10T17:08:55.913Z,22.10
2023-10-10T17:14:01.049Z,22.00
2023-10-10T17:19:16.315Z,22.10
2023-10-10T17:24:22.355Z,22.30
2023-10-10T17:29:28.060Z,22.10
2023-10-10T17:34:34.788Z,22.10
2023-10-10T17:39:37.545Z,21.80
2023-10-10T17:44:39.846Z,21.60
2023-10-10T17:49:42.465Z,21.60
2023-10-10T17:54:46.759Z,21.50
2023-10-10T17:59:53.936Z,21.30
2023-10-10T18:04:56.499Z,21.10
2023-10-10T18:09:58.703Z,21.30
2023-10-10T18:15:01.991Z,21.10
2023-10-10T18:20:15.771Z,20.60
2023-10-10T18:25:18.055Z,20.90
2023-10-10T18:30:22.011Z,21.10
2023-10-10T18:35:28.281Z,20.70
2023-10-10T18:40:31.523Z,20.40
2023-10-10T18:45:38.460Z,20.70
2023-10-10T18:50:40.907Z,21.20
2023-10-10T18:55:43.144Z,21.20
2023-10-10T19:00:45.416Z,20.70
2023-10-10T19:05:53.947Z,20.10
2023-10-10T19:10:56.186Z,19.80
2023-10-10T19:15:58.479Z,19.60
2023-10-10T19:21:01.532Z,20.20
2023-10-10T19:26:05.850Z,20.20
2023-10-10T19:31:08.031Z,20.30
2023-10-10T19:36:10.624Z,19.80
2023-10-10T19:41:16.162Z,19.60
2023-10-10T19:46:21.480Z,19.40
2023-10-10T19:51:23.790Z,19.30
2023-10-10T19:56:26.056Z,19.20
2023-10-10T20:01:28.687Z,19.20
2023-10-10T20:06:31.467Z,19.30
2023-10-10T20:11:36.859Z,19.70
2023-10-10T20:16:39.892Z,19.70
2023-10-10T20:21:42.199Z,19.20
2023-10-10T20:26:44.466Z,19.40
2023-10-10T20:31:46.651Z,19.10
2023-10-10T20:36:48.810Z,19.20
2023-10-10T20:41:51.113Z,19.50
2023-10-10T20:46:53.354Z,19.00
2023-10-10T20:51:56.183Z,19.00
2023-10-10T20:56:58.506Z,18.60
2023-10-10T21:02:01.051Z,18.50
2023-10-10T21:07:03.319Z,18.60
2023-10-10T21:12:08.793Z,18.30
2023-10-10T21:17:13.602Z,18.80
2023-10-10T21:22:16.576Z,19.30
2023-10-10T21:27:19.992Z,19.10
2023-10-10T21:32:22.710Z,18.90
2023-10-10T21:37:25.413Z,19.10
2023-10-10T21:42:27.598Z,19.20
2023-10-10T21:47:29.778Z,18.60
2023-10-10T21:52:32.053Z,18.20
2023-10-10T21:57:37.306Z,17.80
2023-10-10T22:02:39.657Z,18.20
2023-10-10T22:07:44.978Z,18.80
2023-10-10T22:12:50.534Z,18.70
2023-10-10T22:17:58.694Z,18.50
2023-10-10T22:23:02.158Z,18.70
2023-10-10T22:28:05.766Z,19.30
2023-10-10T22:33:12.271Z,19.60
2023-10-10T22:38:14.771Z,19.40
2023-10-10T22:43:16.947Z,18.80
2023-10-10T22:48:19.211Z,18.20
2023-10-10T22:53:21.381Z,18.30
2023-10-10T22:58:23.490Z,18.20
2023-10-10T23:03:25.819Z,17.70
2023-10-10T23:08:27.959Z,17.60
2023-10-10T23:13:30.035Z,17.80
2023-10-10T23:18:37.495Z,18.30
2023-10-10T23:23:42.458Z,18.40
2023-10-10T23:28:45.582Z,18.60
2023-10-10T23:33:47.740Z,18.20
2023-10-10T23:38:50.147Z,17.60
2023-10-10T23:43:52.307Z,18.00
2023-10-10T23:48:56.208Z,18.90
2023-10-10T23:53:59.819Z,19.20
2023-10-10T23:59:03.523Z,18.90
